createdAt,value
2019-05-06T00:00:06.759Z,3.70
2019-05-06T00:02:59.560Z,3.80
2019-05-06T00:05:54.327Z,3.37
2019-05-06T00:08:54.565Z,3.70
2019-05-06T00:11:41.195Z,3.35
2019-05-06T00:14:34.861Z,3.45
2019-05-06T00:17:27.654Z,3.65
2019-05-06T00:20:20.711Z,3.42
2019-05-06T00:23:17.358Z,4.08
2019-05-06T00:29:34.764Z,3.50
2019-05-06T00:32:25.459Z,3.45
2019-05-06T00:35:18.503Z,3.77
2019-05-06T00:38:11.307Z,3.72
2019-05-06T00:41:04.360Z,3.05
2019-05-06T00:43:57.416Z,3.40
2019-05-06T00:46:50.223Z,3.30
2019-05-06T00:49:44.039Z,3.83
2019-05-06T00:52:44.727Z,3.65
2019-05-06T00:55:37.856Z,3.70
2019-05-06T00:58:30.889Z,3.95
2019-05-06T01:01:29.415Z,4.92
2019-05-06T01:04:17.773Z,3.17
2019-05-06T01:07:14.006Z,4.42
2019-05-06T01:10:07.721Z,3.62
2019-05-06T01:13:24.178Z,3.30
2019-05-06T01:16:18.153Z,3.92
2019-05-06T01:19:10.953Z,3.33
2019-05-06T01:22:11.176Z,4.12
2019-05-06T01:25:04.044Z,3.67
2019-05-06T01:27:57.034Z,2.98
2019-05-06T01:30:49.833Z,3.12
2019-05-06T01:33:45.050Z,3.50
2019-05-06T01:36:47.209Z,3.40
2019-05-06T01:39:54.166Z,4.03
2019-05-06T01:43:03.614Z,3.98
2019-05-06T01:45:56.073Z,3.22
2019-05-06T01:49:04.297Z,3.42
2019-05-06T01:51:57.030Z,3.50
2019-05-06T01:54:49.835Z,3.70
2019-05-06T01:57:44.456Z,2.40
2019-05-06T02:00:50.536Z,3.83
2019-05-06T02:03:44.441Z,2.02
2019-05-06T02:06:34.736Z,3.58
2019-05-06T02:09:35.856Z,3.83
2019-05-06T02:12:29.672Z,4.22
2019-05-06T02:15:23.919Z,4.33
2019-05-06T02:18:18.344Z,4.67
2019-05-06T02:21:14.473Z,5.17
2019-05-06T02:24:13.481Z,4.40
2019-05-06T02:27:09.296Z,5.12
2019-05-06T02:30:09.516Z,4.00
2019-05-06T02:33:15.410Z,4.62
2019-05-06T02:36:20.201Z,4.45
2019-05-06T02:39:14.143Z,4.50
2019-05-06T02:42:13.744Z,4.05
2019-05-06T02:45:06.612Z,4.62
2019-05-06T02:48:17.014Z,5.08
2019-05-06T02:51:30.025Z,4.55
2019-05-06T02:54:23.612Z,4.70
2019-05-06T02:57:16.139Z,4.70
2019-05-06T03:00:13.014Z,4.87
2019-05-06T03:03:03.000Z,5.00
2019-05-06T03:05:55.821Z,4.80
2019-05-06T03:08:49.136Z,4.72
2019-05-06T03:11:44.491Z,5.33
2019-05-06T03:14:34.819Z,4.90
2019-05-06T03:17:26.503Z,4.33
2019-05-06T03:20:19.562Z,4.35
2019-05-06T03:23:17.753Z,4.30
2019-05-06T03:26:13.660Z,4.40
2019-05-06T03:29:05.896Z,4.50
2019-05-06T03:31:58.964Z,4.60
2019-05-06T03:35:16.502Z,4.60
2019-05-06T03:37:45.581Z,4.92
2019-05-06T03:40:41.950Z,2.50
2019-05-06T03:43:33.804Z,4.90
2019-05-06T03:46:34.740Z,4.47
2019-05-06T03:49:28.042Z,3.40
2019-05-06T03:52:17.325Z,4.45
2019-05-06T03:55:13.896Z,4.17
2019-05-06T03:58:05.680Z,4.72
2019-05-06T04:00:58.734Z,5.53
2019-05-06T04:03:56.044Z,4.87
2019-05-06T04:06:43.467Z,5.47
2019-05-06T04:09:36.894Z,4.20
2019-05-06T04:12:27.113Z,4.75
2019-05-06T04:15:16.329Z,5.10
2019-05-06T04:18:23.976Z,5.12
2019-05-06T04:21:32.923Z,5.00
2019-05-06T04:24:38.763Z,5.40
2019-05-06T04:27:58.187Z,5.30
2019-05-06T04:30:51.246Z,5.55
2019-05-06T04:33:55.537Z,5.00
2019-05-06T04:36:37.870Z,4.60
2019-05-06T04:39:33.124Z,4.50
2019-05-06T04:42:26.912Z,5.83
2019-05-06T04:45:23.285Z,3.75
2019-05-06T04:48:14.384Z,4.95
2019-05-06T04:51:05.706Z,5.35
2019-05-06T04:53:58.764Z,4.53
2019-05-06T04:56:53.685Z,4.90
2019-05-06T04:59:46.415Z,4.87
2019-05-06T05:02:39.470Z,3.60
2019-05-06T05:05:33.267Z,4.53
2019-05-06T05:08:25.323Z,4.50
2019-05-06T05:11:23.241Z,4.95
2019-05-06T05:14:27.563Z,4.95
2019-05-06T05:17:33.121Z,5.40
2019-05-06T05:20:35.900Z,5.67
2019-05-06T05:23:13.639Z,5.62
2019-05-06T05:26:06.710Z,3.15
2019-05-06T05:28:59.753Z,2.20
2019-05-06T05:31:53.095Z,3.35
2019-05-06T05:35:04.815Z,3.75
2019-05-06T05:37:57.871Z,2.92
2019-05-06T05:40:52.382Z,3.42
2019-05-06T05:44:12.071Z,2.50
2019-05-06T05:47:06.218Z,2.52
2019-05-06T05:50:09.001Z,3.17
2019-05-06T05:53:04.878Z,3.12
2019-05-06T05:59:25.548Z,3.05
2019-05-06T06:02:13.067Z,3.02
2019-05-06T06:05:05.773Z,3.25
2019-05-06T06:07:58.571Z,5.70
2019-05-06T06:11:04.326Z,5.35
2019-05-06T06:13:56.199Z,3.33
2019-05-06T06:16:58.219Z,3.20
2019-05-06T06:20:02.633Z,4.67
2019-05-06T06:22:54.566Z,5.40
2019-05-06T06:25:48.652Z,5.80
2019-05-06T06:28:42.516Z,4.10
2019-05-06T06:31:52.514Z,5.72
2019-05-06T06:34:51.990Z,5.17
2019-05-06T06:38:05.677Z,3.67
2019-05-06T06:40:59.242Z,2.98
2019-05-06T06:43:52.511Z,2.95
2019-05-06T06:46:45.095Z,3.02
2019-05-06T06:49:38.409Z,2.47
2019-05-06T06:52:32.652Z,3.15
2019-05-06T06:55:25.545Z,3.92
2019-05-06T06:58:28.589Z,2.55
2019-05-06T07:01:38.793Z,4.55
2019-05-06T07:04:43.042Z,3.08
2019-05-06T07:07:43.402Z,3.12
2019-05-06T07:10:38.707Z,4.97
2019-05-06T07:13:38.932Z,5.45
2019-05-06T07:16:32.778Z,4.28
2019-05-06T07:19:25.034Z,3.00
2019-05-06T07:22:18.352Z,4.45
2019-05-06T07:25:12.804Z,4.35
2019-05-06T07:28:04.462Z,4.90
2019-05-06T07:31:13.120Z,4.22
2019-05-06T07:33:52.223Z,3.40
2019-05-06T07:36:43.641Z,2.87
2019-05-06T07:39:36.680Z,2.98
2019-05-06T07:42:33.581Z,3.70
2019-05-06T07:45:42.247Z,3.40
2019-05-06T07:48:35.816Z,3.10
2019-05-06T07:51:32.432Z,3.27
2019-05-06T07:54:18.092Z,2.37
2019-05-06T07:57:12.682Z,2.05
2019-05-06T08:00:03.947Z,2.83
2019-05-06T08:02:58.024Z,2.22
2019-05-06T08:05:55.850Z,3.22
2019-05-06T08:08:44.141Z,3.02
2019-05-06T08:11:37.452Z,2.72
2019-05-06T08:14:30.248Z,3.77
2019-05-06T08:17:23.304Z,2.90
2019-05-06T08:20:16.361Z,2.80
2019-05-06T08:23:22.075Z,2.72
2019-05-06T08:26:17.643Z,2.40
2019-05-06T08:29:08.074Z,2.60
2019-05-06T08:32:02.967Z,2.85
2019-05-06T08:34:53.931Z,3.37
2019-05-06T08:38:02.340Z,3.42
2019-05-06T08:40:53.863Z,3.85
2019-05-06T08:43:46.928Z,3.10
2019-05-06T08:46:39.986Z,3.30
2019-05-06T08:49:33.038Z,3.77
2019-05-06T08:52:28.650Z,3.42
2019-05-06T08:55:22.079Z,3.17
2019-05-06T08:58:10.924Z,3.05
2019-05-06T09:01:16.268Z,3.27
2019-05-06T09:04:17.014Z,2.95
2019-05-06T09:07:11.535Z,3.25
2019-05-06T09:10:03.110Z,2.58
2019-05-06T09:12:56.427Z,2.87
2019-05-06T09:15:49.488Z,3.05
2019-05-06T09:18:42.818Z,3.05
2019-05-06T09:21:36.877Z,3.25
2019-05-06T09:24:24.809Z,2.35
2019-05-06T09:27:27.597Z,2.50
2019-05-06T09:30:23.981Z,3.08
2019-05-06T09:33:17.294Z,3.58
2019-05-06T09:36:06.505Z,1.87
2019-05-06T09:39:02.296Z,2.10
2019-05-06T09:41:58.087Z,2.10
2019-05-06T09:44:50.379Z,2.00
2019-05-06T09:48:04.813Z,2.65
2019-05-06T09:51:02.948Z,1.77
2019-05-06T09:54:04.060Z,2.25
2019-05-06T09:57:06.282Z,2.17
2019-05-06T09:59:55.664Z,3.52
2019-05-06T10:02:44.720Z,2.75
2019-05-06T10:05:37.767Z,2.37
2019-05-06T10:08:32.377Z,2.80
2019-05-06T10:11:22.300Z,3.62
2019-05-06T10:14:13.609Z,3.72
2019-05-06T10:17:07.948Z,3.47
2019-05-06T10:20:02.855Z,2.60
2019-05-06T10:22:54.312Z,2.40
2019-05-06T10:25:48.400Z,3.20
2019-05-06T10:28:52.712Z,1.75
2019-05-06T10:31:47.308Z,2.95
2019-05-06T10:34:36.521Z,2.65
2019-05-06T10:37:34.954Z,1.60
2019-05-06T10:40:33.652Z,2.72
2019-05-06T10:43:46.927Z,2.92
2019-05-06T10:46:40.490Z,2.20
2019-05-06T10:49:33.523Z,2.58
2019-05-06T10:52:34.808Z,2.80
2019-05-06T10:55:27.851Z,3.25
2019-05-06T10:58:22.604Z,2.72
2019-05-06T11:01:34.447Z,2.42
2019-05-06T11:04:27.754Z,2.00
2019-05-06T11:07:29.372Z,1.92
2019-05-06T11:10:23.986Z,1.67
2019-05-06T11:13:06.923Z,2.83
2019-05-06T11:16:00.233Z,2.00
2019-05-06T11:18:53.601Z,3.15
2019-05-06T11:21:46.608Z,3.08
2019-05-06T11:24:42.190Z,3.20
2019-05-06T11:27:42.542Z,2.10
2019-05-06T11:30:48.296Z,2.75
2019-05-06T11:33:52.565Z,3.40
2019-05-06T11:36:52.448Z,2.52
2019-05-06T11:39:44.871Z,3.35
2019-05-06T11:42:37.930Z,2.00
2019-05-06T11:45:32.242Z,1.45
2019-05-06T11:48:24.041Z,1.85
2019-05-06T11:51:22.977Z,2.65
2019-05-06T11:54:19.506Z,3.10
2019-05-06T11:57:03.216Z,1.55
2019-05-06T11:59:56.265Z,2.50
2019-05-06T12:02:53.152Z,1.80
2019-05-06T12:05:43.912Z,1.77
2019-05-06T12:08:37.480Z,2.15
2019-05-06T12:11:30.286Z,2.60
2019-05-06T12:14:19.497Z,2.70
2019-05-06T12:17:12.858Z,2.42
2019-05-06T12:20:06.634Z,2.67
2019-05-06T12:23:03.851Z,2.83
2019-05-06T12:25:53.005Z,1.90
2019-05-06T12:28:45.802Z,2.12
2019-05-06T12:31:42.015Z,2.10
2019-05-06T12:34:32.936Z,1.77
2019-05-06T12:37:25.995Z,2.60
2019-05-06T12:40:19.562Z,1.37
2019-05-06T12:43:23.627Z,2.70
2019-05-06T12:46:25.898Z,1.90
2019-05-06T12:49:18.967Z,2.92
2019-05-06T12:52:13.035Z,2.27
2019-05-06T12:55:17.420Z,2.65
2019-05-06T12:57:55.568Z,2.25
2019-05-06T13:00:45.158Z,2.00
2019-05-06T13:03:43.101Z,2.35
2019-05-06T13:06:33.972Z,2.17
2019-05-06T13:09:26.795Z,2.10
2019-05-06T13:12:22.988Z,2.30
2019-05-06T13:15:13.551Z,2.95
2019-05-06T13:18:07.089Z,2.35
2019-05-06T13:20:55.941Z,2.60
2019-05-06T13:23:56.908Z,2.05
2019-05-06T13:26:52.602Z,1.30
2019-05-06T13:29:43.527Z,2.37
2019-05-06T13:32:37.100Z,1.87
2019-05-06T13:35:29.898Z,1.52
2019-05-06T13:38:19.115Z,1.17
2019-05-06T13:41:12.694Z,1.98
2019-05-06T13:44:32.246Z,1.55
2019-05-06T13:47:27.984Z,1.62
2019-05-06T13:50:22.943Z,2.27
2019-05-06T13:53:18.440Z,1.45
2019-05-06T13:56:12.063Z,2.60
2019-05-06T13:59:05.265Z,1.60
2019-05-06T14:02:17.582Z,1.87
2019-05-06T14:05:12.188Z,2.05
2019-05-06T14:08:04.947Z,1.75
2019-05-06T14:11:00.039Z,2.40
2019-05-06T14:13:52.951Z,1.55
2019-05-06T14:16:44.137Z,1.77
2019-05-06T14:19:37.196Z,2.25
2019-05-06T14:22:32.444Z,1.45
2019-05-06T14:25:29.383Z,1.70
2019-05-06T14:28:28.140Z,1.95
2019-05-06T14:31:25.983Z,1.98
2019-05-06T14:34:22.942Z,1.75
2019-05-06T14:37:10.957Z,2.00
2019-05-06T14:40:05.480Z,2.60
2019-05-06T14:42:58.804Z,1.52
2019-05-06T14:45:49.331Z,1.50
2019-05-06T14:48:43.647Z,2.15
2019-05-06T14:51:35.917Z,2.20
2019-05-06T14:54:28.719Z,1.50
2019-05-06T14:57:26.382Z,1.62
2019-05-06T15:00:19.439Z,1.50
2019-05-06T15:03:13.088Z,1.70
2019-05-06T15:06:05.803Z,2.25
2019-05-06T15:08:59.113Z,2.22
2019-05-06T15:11:52.168Z,2.52
2019-05-06T15:14:45.996Z,2.15
2019-05-06T15:17:39.047Z,2.05
2019-05-06T15:20:34.254Z,1.47
2019-05-06T15:23:28.753Z,2.47
2019-05-06T15:26:29.227Z,2.47
2019-05-06T15:29:23.667Z,2.20
2019-05-06T15:32:41.463Z,2.58
2019-05-06T15:35:45.768Z,1.87
2019-05-06T15:38:41.999Z,1.80
2019-05-06T15:41:33.934Z,1.85
2019-05-06T15:44:26.986Z,2.33
2019-05-06T15:47:22.517Z,1.60
2019-05-06T15:50:13.358Z,1.65
2019-05-06T15:53:06.407Z,1.70
2019-05-06T15:55:59.207Z,2.50
2019-05-06T15:58:52.264Z,1.92
2019-05-06T16:01:45.324Z,2.25
2019-05-06T16:04:38.128Z,2.05
2019-05-06T16:07:36.785Z,2.05
2019-05-06T16:10:24.234Z,1.85
2019-05-06T16:13:17.287Z,2.00
2019-05-06T16:16:10.349Z,1.62
2019-05-06T16:19:04.429Z,1.82
2019-05-06T16:21:57.755Z,2.27
2019-05-06T16:25:02.686Z,1.98
2019-05-06T16:27:54.585Z,1.80
2019-05-06T16:30:46.640Z,1.85
2019-05-06T16:33:39.434Z,1.57
2019-05-06T16:36:28.398Z,1.90
2019-05-06T16:39:23.033Z,2.47
2019-05-06T16:42:15.280Z,2.02
2019-05-06T16:45:08.332Z,1.60
2019-05-06T16:48:03.655Z,2.00
2019-05-06T16:50:54.953Z,2.00
2019-05-06T16:53:49.031Z,1.77
2019-05-06T16:57:08.462Z,2.25
2019-05-06T17:00:02.967Z,2.75
2019-05-06T17:03:03.788Z,2.10
2019-05-06T17:06:06.566Z,2.52
2019-05-06T17:08:55.785Z,2.12
2019-05-06T17:11:52.425Z,2.10
2019-05-06T17:14:45.485Z,2.40
2019-05-06T17:18:56.268Z,1.92
2019-05-06T17:21:44.556Z,2.33
2019-05-06T17:24:38.390Z,2.00
2019-05-06T17:27:32.288Z,2.10
2019-05-06T17:30:39.853Z,3.40
2019-05-06T17:33:49.304Z,3.25
2019-05-06T17:36:43.119Z,3.08
2019-05-06T17:39:36.425Z,3.45
2019-05-06T17:42:29.998Z,2.02
2019-05-06T17:45:33.033Z,2.30
2019-05-06T17:48:37.874Z,2.20
2019-05-06T17:51:34.580Z,2.87
2019-05-06T17:54:26.100Z,2.70
2019-05-06T17:57:19.082Z,1.90
2019-05-06T18:00:08.303Z,3.35
2019-05-06T18:03:03.409Z,3.40
2019-05-06T18:05:57.224Z,2.80
2019-05-06T18:08:52.686Z,2.52
2019-05-06T18:11:57.565Z,2.35
2019-05-06T18:14:36.391Z,2.22
2019-05-06T18:17:29.447Z,2.87
2019-05-06T18:20:19.432Z,2.65
2019-05-06T18:23:12.950Z,2.72
2019-05-06T18:26:03.207Z,3.02
2019-05-06T18:29:02.442Z,2.50
2019-05-06T18:31:52.485Z,2.70
2019-05-06T18:34:41.386Z,1.60
2019-05-06T18:37:35.975Z,2.42
2019-05-06T18:40:25.194Z,1.80
2019-05-06T18:43:18.249Z,2.20
2019-05-06T18:46:22.825Z,1.62
2019-05-06T18:49:15.881Z,2.27
2019-05-06T18:52:08.937Z,2.05
2019-05-06T18:55:02.251Z,2.02
2019-05-06T18:57:55.048Z,1.82
2019-05-06T19:00:48.616Z,1.80
2019-05-06T19:03:43.030Z,2.37
2019-05-06T19:06:35.244Z,1.90
2019-05-06T19:09:39.050Z,2.67
2019-05-06T19:12:40.522Z,2.35
2019-05-06T19:15:26.188Z,2.15
2019-05-06T19:18:26.920Z,1.50
2019-05-06T19:21:16.135Z,1.87
2019-05-06T19:24:12.331Z,2.22
2019-05-06T19:27:05.090Z,1.90
2019-05-06T19:30:13.044Z,1.80
2019-05-06T19:33:07.132Z,2.33
2019-05-06T19:35:58.826Z,2.05
2019-05-06T19:38:54.186Z,2.50
2019-05-06T19:41:49.803Z,3.08
2019-05-06T19:44:56.169Z,2.00
2019-05-06T19:47:52.808Z,2.75
2019-05-06T19:54:02.199Z,3.12
2019-05-06T19:56:52.711Z,3.90
2019-05-06T19:59:43.976Z,3.00
2019-05-06T20:02:37.036Z,3.10
2019-05-06T20:05:42.385Z,3.83
2019-05-06T20:08:46.698Z,3.33
2019-05-06T20:11:51.925Z,3.62
2019-05-06T20:14:43.562Z,4.00
2019-05-06T20:17:36.619Z,3.50
2019-05-06T20:20:32.657Z,3.33
2019-05-06T20:23:23.289Z,3.50
2019-05-06T20:26:16.046Z,3.12
2019-05-06T20:29:09.351Z,3.17
2019-05-06T20:32:03.436Z,3.62
2019-05-06T20:34:56.491Z,3.27
2019-05-06T20:37:49.292Z,3.62
2019-05-06T20:40:43.077Z,3.52
2019-05-06T20:43:42.853Z,4.28
2019-05-06T20:46:32.414Z,3.70
2019-05-06T20:49:26.123Z,4.53
2019-05-06T20:52:30.636Z,5.25
2019-05-06T20:55:32.662Z,4.80
2019-05-06T20:58:22.987Z,5.28
2019-05-06T21:01:11.144Z,4.78
2019-05-06T21:07:11.893Z,5.37
2019-05-06T21:10:02.874Z,5.00
2019-05-06T21:12:55.661Z,5.00
2019-05-06T21:15:47.920Z,5.55
2019-05-06T21:18:41.936Z,5.45
2019-05-06T21:21:31.923Z,5.62
2019-05-06T21:24:32.517Z,6.42
2019-05-06T21:30:42.982Z,6.97
2019-05-06T21:33:35.467Z,6.75
2019-05-06T21:36:28.524Z,6.72
2019-05-06T21:39:22.424Z,7.60
2019-05-06T21:42:14.379Z,7.78
2019-05-06T21:45:13.071Z,7.40
2019-05-06T21:48:08.682Z,7.62
2019-05-06T21:51:01.739Z,7.42
2019-05-06T21:54:16.304Z,6.62
2019-05-06T21:57:12.283Z,6.00
2019-05-06T22:00:07.787Z,7.28
2019-05-06T22:03:02.391Z,6.97
2019-05-06T22:06:02.627Z,6.60
2019-05-06T22:08:55.917Z,6.92
2019-05-06T22:11:52.867Z,6.97
2019-05-06T22:14:56.360Z,6.55
2019-05-06T22:17:57.611Z,6.22
2019-05-06T22:21:09.097Z,4.92
2019-05-06T22:24:22.349Z,6.65
2019-05-06T22:27:24.910Z,6.28
2019-05-06T22:30:17.964Z,5.90
2019-05-06T22:33:12.588Z,4.87
2019-05-06T22:36:06.120Z,4.62
2019-05-06T22:38:59.178Z,5.60
2019-05-06T22:41:52.122Z,4.80
2019-05-06T22:44:53.228Z,5.67
2019-05-06T22:47:49.353Z,4.53
2019-05-06T22:50:42.665Z,5.40
2019-05-06T22:53:47.752Z,5.53
2019-05-06T22:56:40.809Z,4.83
2019-05-06T22:59:33.021Z,4.25
2019-05-06T23:02:41.259Z,3.52
2019-05-06T23:05:34.061Z,5.22
2019-05-06T23:08:34.797Z,3.00
2019-05-06T23:11:27.596Z,6.40
2019-05-06T23:14:28.847Z,3.27
2019-05-06T23:17:24.370Z,4.58
2019-05-06T23:20:24.422Z,3.35
2019-05-06T23:23:15.443Z,3.10
2019-05-06T23:26:19.495Z,2.40
2019-05-06T23:29:15.118Z,3.17
2019-05-06T23:32:08.173Z,4.45
2019-05-06T23:35:04.040Z,5.20
2019-05-06T23:38:09.129Z,5.78
2019-05-06T23:41:12.501Z,5.92
2019-05-06T23:47:35.911Z,5.33
2019-05-06T23:50:38.957Z,5.58
2019-05-06T23:53:44.553Z,4.10
2019-05-06T23:56:47.595Z,5.28
2019-05-06T23:59:42.981Z,5.30
